createdAt,value
2023-01-15T00:02:24.711Z,100023.69
2023-01-15T00:04:53.208Z,100035.00
2023-01-15T00:07:21.715Z,100037.34
2023-01-15T00:09:51.417Z,100023.00
2023-01-15T00:12:19.956Z,100024.22
2023-01-15T00:14:49.804Z,100032.16
2023-01-15T00:17:18.239Z,100035.38
2023-01-15T00:19:47.748Z,100025.84
2023-01-15T00:22:16.627Z,100024.19
2023-01-15T00:25:02.643Z,100024.94
2023-01-15T00:27:44.260Z,100035.69
2023-01-15T00:30:16.156Z,100032.91
2023-01-15T00:32:45.874Z,100028.97
2023-01-15T00:35:16.131Z,100034.72
2023-01-15T00:37:44.818Z,100035.78
2023-01-15T00:40:13.514Z,100038.25
2023-01-15T00:42:43.132Z,100028.69
2023-01-15T00:45:17.265Z,100028.44
2023-01-15T00:47:48.307Z,100022.34
2023-01-15T00:50:17.265Z,100015.72
2023-01-15T00:52:45.698Z,100010.84
2023-01-15T00:55:14.195Z,99996.28
2023-01-15T00:57:42.387Z,99990.84
2023-01-15T01:00:12.727Z,99998.66
2023-01-15T01:02:43.275Z,100007.97
2023-01-15T01:05:11.743Z,100004.16
2023-01-15T01:07:43.169Z,99984.16
2023-01-15T01:10:12.145Z,99979.53
2023-01-15T01:12:41.344Z,99985.50
2023-01-15T01:15:11.115Z,99988.41
2023-01-15T01:17:42.413Z,99982.13
2023-01-15T01:20:17.175Z,99993.22
2023-01-15T01:22:45.951Z,99993.75
2023-01-15T01:25:14.387Z,99997.50
2023-01-15T01:27:45.926Z,100004.19
2023-01-15T01:30:15.933Z,99992.44
2023-01-15T01:32:46.523Z,99979.19
2023-01-15T01:35:16.661Z,99994.13
2023-01-15T01:37:45.461Z,99994.06
2023-01-15T01:40:14.408Z,99986.00
2023-01-15T01:42:42.800Z,99992.31
2023-01-15T01:45:25.091Z,99983.88
2023-01-15T01:47:55.831Z,99978.53
2023-01-15T01:50:27.111Z,99973.41
2023-01-15T01:53:03.115Z,99965.66
2023-01-15T01:55:34.752Z,99975.53
2023-01-15T01:58:05.735Z,99972.06
2023-01-15T02:00:42.473Z,99962.13
2023-01-15T02:03:11.563Z,99957.66
2023-01-15T02:05:47.360Z,99966.25
2023-01-15T02:08:16.043Z,99977.06
2023-01-15T02:10:44.219Z,99986.78
2023-01-15T02:13:19.069Z,99981.34
2023-01-15T02:15:51.931Z,99976.41
2023-01-15T02:18:25.337Z,99964.75
2023-01-15T02:20:59.963Z,99973.94
2023-01-15T02:23:39.942Z,99983.28
2023-01-15T02:29:33.708Z,99992.06
2023-01-15T02:32:09.243Z,99970.97
2023-01-15T02:34:44.889Z,99975.25
2023-01-15T02:37:20.463Z,99970.03
2023-01-15T02:39:51.029Z,99960.31
2023-01-15T02:42:26.163Z,99970.28
2023-01-15T02:44:59.919Z,99969.28
2023-01-15T02:47:34.739Z,99956.16
2023-01-15T02:50:08.648Z,99967.59
2023-01-15T02:52:45.770Z,99957.16
2023-01-15T02:55:21.885Z,99965.09
2023-01-15T02:57:55.364Z,99965.69
2023-01-15T03:00:27.946Z,99972.13
2023-01-15T03:03:02.433Z,99978.75
2023-01-15T03:05:37.896Z,99968.78
2023-01-15T03:08:10.369Z,99966.94
2023-01-15T03:10:47.661Z,99968.63
2023-01-15T03:13:20.978Z,99974.84
2023-01-15T03:16:17.419Z,99976.16
2023-01-15T03:18:54.686Z,99978.56
2023-01-15T03:21:32.653Z,99968.13
2023-01-15T03:24:06.033Z,99968.81
2023-01-15T03:26:34.600Z,99977.91
2023-01-15T03:29:05.971Z,99971.91
2023-01-15T03:31:37.801Z,99978.03
2023-01-15T03:34:07.375Z,99988.16
2023-01-15T03:36:36.263Z,99981.50
2023-01-15T03:39:05.542Z,99976.19
2023-01-15T03:42:00.704Z,99971.56
2023-01-15T03:44:40.174Z,99972.16
2023-01-15T03:47:21.841Z,99981.47
2023-01-15T03:50:00.710Z,99984.31
2023-01-15T03:52:43.668Z,99980.91
2023-01-15T03:55:17.010Z,99985.00
2023-01-15T03:58:00.372Z,99980.13
2023-01-15T04:00:37.456Z,99990.88
2023-01-15T04:03:10.676Z,100004.88
2023-01-15T04:05:41.055Z,99997.59
2023-01-15T04:08:11.352Z,99994.13
2023-01-15T04:10:39.888Z,99997.75
2023-01-15T04:13:11.853Z,99997.88
2023-01-15T04:15:42.598Z,99990.56
2023-01-15T04:18:12.582Z,99979.34
2023-01-15T04:20:41.336Z,99977.88
2023-01-15T04:23:10.060Z,99981.97
2023-01-15T04:25:38.310Z,99981.16
2023-01-15T04:28:06.696Z,99990.50
2023-01-15T04:30:35.437Z,99978.63
2023-01-15T04:33:04.524Z,99978.84
2023-01-15T04:35:36.129Z,99983.25
2023-01-15T04:38:04.674Z,99988.94
2023-01-15T04:40:50.644Z,99978.72
2023-01-15T04:43:36.718Z,100001.25
2023-01-15T04:46:05.367Z,99993.09
2023-01-15T04:48:33.545Z,99979.56
2023-01-15T04:51:05.651Z,99991.59
2023-01-15T04:53:34.902Z,99994.44
2023-01-15T04:56:03.767Z,99984.91
2023-01-15T04:58:32.883Z,99981.66
2023-01-15T05:01:01.873Z,99990.09
2023-01-15T05:03:30.654Z,99977.19
2023-01-15T05:06:02.716Z,99983.81
2023-01-15T05:08:35.165Z,99982.53
2023-01-15T05:11:06.639Z,99983.59
2023-01-15T05:13:35.686Z,99971.84
2023-01-15T05:16:19.289Z,99971.81
2023-01-15T05:18:48.804Z,99984.47
2023-01-15T05:21:20.793Z,99974.41
2023-01-15T05:23:51.584Z,99971.09
2023-01-15T05:26:21.221Z,99978.13
2023-01-15T05:28:50.086Z,99972.72
2023-01-15T05:31:20.709Z,99968.09
2023-01-15T05:33:51.212Z,99967.56
2023-01-15T05:36:21.723Z,99974.69
2023-01-15T05:38:52.455Z,99972.53
2023-01-15T05:41:39.992Z,99974.19
2023-01-15T05:44:10.541Z,99970.38
2023-01-15T05:46:41.153Z,99966.50
2023-01-15T05:49:12.975Z,99977.69
2023-01-15T05:51:42.107Z,99974.81
2023-01-15T05:54:14.520Z,99978.25
2023-01-15T05:56:43.851Z,99981.03
2023-01-15T05:59:13.116Z,99968.84
2023-01-15T06:01:42.100Z,99967.41
2023-01-15T06:04:14.256Z,99986.31
2023-01-15T06:06:43.528Z,99964.22
2023-01-15T06:09:13.471Z,99977.31
2023-01-15T06:11:42.472Z,99973.28
2023-01-15T06:14:12.705Z,99974.00
2023-01-15T06:16:41.905Z,99975.38
2023-01-15T06:19:14.782Z,99973.94
2023-01-15T06:21:43.412Z,99966.28
2023-01-15T06:24:17.314Z,99948.56
2023-01-15T06:26:46.114Z,99963.28
2023-01-15T06:29:18.830Z,99951.03
2023-01-15T06:31:49.599Z,99962.38
2023-01-15T06:34:18.224Z,99970.94
2023-01-15T06:36:46.712Z,99949.13
2023-01-15T06:39:16.562Z,99958.84
2023-01-15T06:42:02.546Z,99960.88
2023-01-15T06:44:48.727Z,99964.28
2023-01-15T06:47:22.856Z,99953.78
2023-01-15T06:50:00.438Z,99960.44
2023-01-15T06:55:20.361Z,99969.25
2023-01-15T06:57:48.794Z,99984.97
2023-01-15T07:00:18.061Z,99983.50
2023-01-15T07:02:46.733Z,99991.56
2023-01-15T07:05:15.117Z,99989.19
2023-01-15T07:07:43.613Z,99989.84
2023-01-15T07:10:15.959Z,99995.03
2023-01-15T07:12:45.859Z,100013.56
2023-01-15T07:15:14.495Z,100006.19
2023-01-15T07:17:42.692Z,100006.22
2023-01-15T07:20:12.560Z,100006.97
2023-01-15T07:22:41.065Z,100001.28
2023-01-15T07:25:13.536Z,99984.44
2023-01-15T07:27:42.071Z,99998.19
2023-01-15T07:30:16.341Z,99991.16
2023-01-15T07:32:44.962Z,99985.94
2023-01-15T07:35:13.425Z,99977.88
2023-01-15T07:37:44.214Z,99974.25
2023-01-15T07:40:15.920Z,99985.59
2023-01-15T07:43:02.170Z,99989.00
2023-01-15T07:45:49.870Z,99977.81
2023-01-15T07:48:36.225Z,99976.00
2023-01-15T07:51:05.168Z,99984.44
2023-01-15T07:53:33.411Z,99990.66
2023-01-15T07:56:02.278Z,99982.41
2023-01-15T07:58:31.114Z,99985.03
2023-01-15T08:01:01.557Z,99973.81
2023-01-15T08:03:30.560Z,99974.63
2023-01-15T08:05:59.646Z,99973.91
2023-01-15T08:08:28.352Z,99974.19
2023-01-15T08:11:14.482Z,99984.09
2023-01-15T08:14:00.759Z,99976.44
2023-01-15T08:16:31.244Z,99960.53
2023-01-15T08:19:00.134Z,99949.53
2023-01-15T08:21:31.587Z,99959.81
2023-01-15T08:24:00.484Z,99956.44
2023-01-15T08:26:29.460Z,99954.50
2023-01-15T08:28:59.606Z,99961.78
2023-01-15T08:31:29.168Z,99962.66
2023-01-15T08:34:01.470Z,99950.84
2023-01-15T08:36:30.758Z,99949.22
2023-01-15T08:39:00.026Z,99961.06
2023-01-15T08:41:31.012Z,99958.63
2023-01-15T08:44:00.108Z,99971.19
2023-01-15T08:46:28.586Z,99967.03
2023-01-15T08:48:58.547Z,99956.38
2023-01-15T08:51:27.578Z,99962.00
2023-01-15T08:53:56.042Z,99969.28
2023-01-15T08:56:24.507Z,99962.59
2023-01-15T08:58:53.080Z,99967.78
2023-01-15T09:01:21.772Z,99964.22
2023-01-15T09:03:50.365Z,99956.72
2023-01-15T09:06:20.777Z,99961.22
2023-01-15T09:08:49.473Z,99964.81
2023-01-15T09:11:17.643Z,99973.34
2023-01-15T09:13:46.953Z,99975.25
2023-01-15T09:16:17.591Z,99948.38
2023-01-15T09:18:46.275Z,99960.91
2023-01-15T09:21:14.503Z,99941.84
2023-01-15T09:23:44.319Z,99961.00
2023-01-15T09:26:27.980Z,99944.88
2023-01-15T09:28:57.086Z,99933.78
2023-01-15T09:31:28.291Z,99946.38
2023-01-15T09:33:57.843Z,99945.03
2023-01-15T09:36:29.496Z,99944.47
2023-01-15T09:39:01.126Z,99937.44
2023-01-15T09:42:03.869Z,99937.03
2023-01-15T09:44:44.783Z,99939.69
2023-01-15T09:47:17.166Z,99937.06
2023-01-15T09:49:59.369Z,99949.75
2023-01-15T09:53:11.032Z,99945.34
2023-01-15T09:55:47.204Z,99929.66
2023-01-15T09:58:18.564Z,99950.97
2023-01-15T10:00:51.805Z,99947.78
2023-01-15T10:03:30.449Z,99936.75
2023-01-15T10:06:10.270Z,99917.88
2023-01-15T10:08:42.161Z,99930.94
2023-01-15T10:11:46.816Z,99924.13
2023-01-15T10:14:39.277Z,99919.31
2023-01-15T10:17:23.377Z,99921.06
2023-01-15T10:19:53.482Z,99916.50
2023-01-15T10:22:33.792Z,99935.53
2023-01-15T10:25:10.939Z,99929.16
2023-01-15T10:27:45.084Z,99937.66
2023-01-15T10:30:18.269Z,99935.38
2023-01-15T10:33:02.055Z,99947.44
2023-01-15T10:35:41.042Z,99931.56
2023-01-15T10:38:17.912Z,99941.59
2023-01-15T10:41:07.388Z,99938.19
2023-01-15T10:43:48.127Z,99940.34
2023-01-15T10:46:21.911Z,99923.31
2023-01-15T10:48:53.420Z,99910.38
2023-01-15T10:51:28.083Z,99916.91
2023-01-15T10:54:04.562Z,99908.69
2023-01-15T10:56:39.732Z,99912.69
2023-01-15T10:59:22.392Z,99921.94
2023-01-15T11:01:54.492Z,99921.66
2023-01-15T11:04:23.801Z,99920.97
2023-01-15T11:06:52.352Z,99920.41
2023-01-15T11:09:24.015Z,99922.25
2023-01-15T11:12:12.543Z,99925.50
2023-01-15T11:15:01.007Z,99923.91
2023-01-15T11:17:50.222Z,99921.00
2023-01-15T11:20:30.838Z,99915.84
2023-01-15T11:23:09.448Z,99924.28
2023-01-15T11:25:39.690Z,99919.69
2023-01-15T11:28:09.984Z,99907.69
2023-01-15T11:30:41.220Z,99888.84
2023-01-15T11:33:23.515Z,99881.97
2023-01-15T11:35:58.343Z,99885.63
2023-01-15T11:38:28.154Z,99894.31
2023-01-15T11:40:59.839Z,99895.72
2023-01-15T11:43:48.640Z,99866.19
2023-01-15T11:46:47.690Z,99875.25
2023-01-15T11:49:39.403Z,99867.38
2023-01-15T11:52:11.923Z,99871.19
2023-01-15T11:54:44.184Z,99878.81
2023-01-15T11:57:13.400Z,99871.34
2023-01-15T11:59:41.943Z,99857.91
2023-01-15T12:02:23.152Z,99861.28
2023-01-15T12:04:56.255Z,99882.97
2023-01-15T12:07:26.848Z,99877.59
2023-01-15T12:10:18.714Z,99881.03
2023-01-15T12:13:02.376Z,99887.53
2023-01-15T12:15:45.444Z,99884.81
2023-01-15T12:18:58.448Z,99876.56
2023-01-15T12:21:59.870Z,99882.97
2023-01-15T12:24:48.317Z,99864.00
2023-01-15T12:27:33.967Z,99855.09
2023-01-15T12:30:07.693Z,99864.13
2023-01-15T12:32:44.455Z,99856.66
2023-01-15T12:35:20.262Z,99865.06
2023-01-15T12:37:53.980Z,99860.22
2023-01-15T12:40:30.700Z,99862.84
2023-01-15T12:43:19.561Z,99833.09
2023-01-15T12:45:53.534Z,99870.44
2023-01-15T12:48:30.252Z,99865.19
2023-01-15T12:51:02.629Z,99857.16
2023-01-15T12:53:37.664Z,99856.59
2023-01-15T12:56:15.987Z,99861.44
2023-01-15T12:58:49.540Z,99857.44
2023-01-15T13:01:33.474Z,99867.69
2023-01-15T13:04:12.463Z,99858.13
2023-01-15T13:06:48.458Z,99862.75
2023-01-15T13:09:30.287Z,99868.41
2023-01-15T13:12:00.450Z,99884.88
2023-01-15T13:14:28.980Z,99883.03
2023-01-15T13:17:03.445Z,99901.94
2023-01-15T13:19:44.701Z,99900.50
2023-01-15T13:22:22.289Z,99911.97
2023-01-15T13:25:19.600Z,99909.09
2023-01-15T13:28:01.477Z,99912.22
2023-01-15T13:30:52.449Z,99905.63
2023-01-15T13:33:29.579Z,99905.19
2023-01-15T13:36:07.756Z,99913.84
2023-01-15T13:38:41.896Z,99914.09
2023-01-15T13:41:11.349Z,99914.56
2023-01-15T13:43:44.291Z,99909.47
2023-01-15T13:46:14.681Z,99914.38
2023-01-15T13:48:46.058Z,99907.75
2023-01-15T13:51:30.909Z,99918.31
2023-01-15T13:54:04.337Z,99926.41
2023-01-15T13:56:36.207Z,99919.50
2023-01-15T13:59:08.255Z,99912.78
2023-01-15T14:01:39.378Z,99918.25
2023-01-15T14:04:15.370Z,99912.44
2023-01-15T14:06:48.845Z,99904.22
2023-01-15T14:09:32.156Z,99925.09
2023-01-15T14:12:11.034Z,99909.53
2023-01-15T14:14:59.238Z,99922.69
2023-01-15T14:17:57.703Z,99924.16
2023-01-15T14:20:44.682Z,99917.78
2023-01-15T14:23:32.380Z,99923.06
2023-01-15T14:26:13.379Z,99917.25
2023-01-15T14:29:03.238Z,99903.97
2023-01-15T14:31:44.255Z,99933.00
2023-01-15T14:34:18.566Z,99924.28
2023-01-15T14:37:01.608Z,99924.25
2023-01-15T14:39:33.808Z,99901.44
2023-01-15T14:42:35.516Z,99926.38
2023-01-15T14:45:08.432Z,99926.97
2023-01-15T14:47:46.793Z,99921.94
2023-01-15T14:50:33.805Z,99910.81
2023-01-15T14:53:07.925Z,99914.06
2023-01-15T14:55:49.239Z,99914.59
2023-01-15T14:58:31.615Z,99906.66
2023-01-15T15:01:03.882Z,99910.72
2023-01-15T15:03:38.646Z,99905.97
2023-01-15T15:06:12.486Z,99893.53
2023-01-15T15:08:43.648Z,99902.47
2023-01-15T15:11:36.048Z,99899.16
2023-01-15T15:14:07.578Z,99879.16
2023-01-15T15:16:43.856Z,99887.81
2023-01-15T15:19:19.684Z,99884.50
2023-01-15T15:21:49.862Z,99892.88
2023-01-15T15:24:24.805Z,99879.25
2023-01-15T15:26:53.510Z,99884.03
2023-01-15T15:29:26.704Z,99867.13
2023-01-15T15:32:01.826Z,99881.59
2023-01-15T15:34:34.267Z,99873.94
2023-01-15T15:37:05.657Z,99854.00
2023-01-15T15:39:45.922Z,99852.53
2023-01-15T15:42:39.809Z,99861.69
2023-01-15T15:45:35.019Z,99839.06
2023-01-15T15:48:31.675Z,99856.00
2023-01-15T15:51:03.170Z,99858.53
2023-01-15T15:53:33.479Z,99860.31
2023-01-15T15:56:10.934Z,99855.13
2023-01-15T15:58:45.994Z,99853.44
2023-01-15T16:01:41.993Z,99850.44
2023-01-15T16:04:18.000Z,99810.44
2023-01-15T16:06:48.795Z,99839.09
2023-01-15T16:09:23.121Z,99831.16
2023-01-15T16:11:55.726Z,99835.81
2023-01-15T16:14:27.945Z,99819.28
2023-01-15T16:16:56.985Z,99794.44
2023-01-15T16:19:27.795Z,99843.31
2023-01-15T16:21:58.279Z,99842.56
2023-01-15T16:24:29.461Z,99809.63
2023-01-15T16:27:03.945Z,99831.25
2023-01-15T16:29:35.086Z,99829.00
2023-01-15T16:32:12.585Z,99823.16
2023-01-15T16:34:41.916Z,99773.59
2023-01-15T16:37:27.473Z,99811.06
2023-01-15T16:39:56.512Z,99799.75
2023-01-15T16:42:28.931Z,99802.53
2023-01-15T16:45:01.239Z,99786.16
2023-01-15T16:47:37.582Z,99779.09
2023-01-15T16:50:31.496Z,99786.16
2023-01-15T16:53:05.951Z,99757.44
2023-01-15T16:55:43.249Z,99774.28
2023-01-15T16:58:23.860Z,99757.53
2023-01-15T17:00:55.946Z,99765.97
2023-01-15T17:03:26.360Z,99763.22
2023-01-15T17:05:56.894Z,99737.22
2023-01-15T17:08:34.488Z,99750.75
2023-01-15T17:11:05.318Z,99745.91
2023-01-15T17:13:37.752Z,99744.19
2023-01-15T17:16:16.863Z,99755.63
2023-01-15T17:18:45.764Z,99753.19
2023-01-15T17:21:21.659Z,99749.28
2023-01-15T17:23:52.758Z,99768.25
2023-01-15T17:26:25.129Z,99768.44
2023-01-15T17:28:53.977Z,99743.25
2023-01-15T17:31:28.555Z,99747.44
2023-01-15T17:34:04.007Z,99764.41
2023-01-15T17:36:33.039Z,99706.53
2023-01-15T17:39:03.228Z,99712.25
2023-01-15T17:41:32.241Z,99744.19
2023-01-15T17:44:03.153Z,99762.34
2023-01-15T17:46:31.891Z,99733.22
2023-01-15T17:49:00.720Z,99755.88
2023-01-15T17:51:30.527Z,99764.66
2023-01-15T17:53:59.429Z,99780.41
2023-01-15T17:56:47.018Z,99782.69
2023-01-15T17:59:41.490Z,99791.47
2023-01-15T18:02:34.163Z,99789.28
2023-01-15T18:05:20.493Z,99797.38
2023-01-15T18:07:49.345Z,99803.22
2023-01-15T18:10:19.203Z,99794.22
2023-01-15T18:12:53.108Z,99804.66
2023-01-15T18:15:22.399Z,99799.22
2023-01-15T18:17:51.369Z,99793.75
2023-01-15T18:20:20.331Z,99801.59
2023-01-15T18:22:48.975Z,99789.78
2023-01-15T18:25:20.522Z,99791.25
2023-01-15T18:27:51.467Z,99802.41
2023-01-15T18:30:20.256Z,99783.22
2023-01-15T18:32:49.008Z,99796.16
2023-01-15T18:35:18.545Z,99787.66
2023-01-15T18:37:46.942Z,99782.41
2023-01-15T18:40:18.090Z,99783.06
2023-01-15T18:43:04.075Z,99773.78
2023-01-15T18:45:51.287Z,99780.03
2023-01-15T18:48:20.017Z,99765.00
2023-01-15T18:50:49.532Z,99783.59
2023-01-15T18:53:18.250Z,99769.38
2023-01-15T18:55:46.725Z,99764.56
2023-01-15T18:58:15.155Z,99773.41
2023-01-15T19:00:45.152Z,99767.56
2023-01-15T19:03:13.741Z,99753.59
2023-01-15T19:05:42.234Z,99768.19
2023-01-15T19:08:10.453Z,99763.69
2023-01-15T19:10:38.833Z,99758.69
2023-01-15T19:13:07.249Z,99753.91
2023-01-15T19:15:54.128Z,99756.72
2023-01-15T19:18:41.089Z,99755.44
2023-01-15T19:21:12.972Z,99755.78
2023-01-15T19:23:41.668Z,99744.72
2023-01-15T19:26:10.256Z,99754.84
2023-01-15T19:28:38.470Z,99753.00
2023-01-15T19:31:26.942Z,99745.81
2023-01-15T19:34:13.099Z,99749.09
2023-01-15T19:36:47.622Z,99745.78
2023-01-15T19:39:17.714Z,99740.22
2023-01-15T19:42:03.465Z,99734.19
2023-01-15T19:44:49.619Z,99738.06
2023-01-15T19:47:42.776Z,99736.31
2023-01-15T19:50:21.801Z,99731.91
2023-01-15T19:52:52.420Z,99716.47
2023-01-15T19:55:21.884Z,99721.44
2023-01-15T19:57:57.841Z,99715.06
2023-01-15T20:00:26.917Z,99687.00
2023-01-15T20:02:56.562Z,99718.25
2023-01-15T20:05:30.815Z,99724.03
2023-01-15T20:07:59.821Z,99712.16
2023-01-15T20:10:30.188Z,99706.41
2023-01-15T20:13:16.153Z,99712.97
2023-01-15T20:15:47.040Z,99694.31
2023-01-15T20:18:17.375Z,99709.13
2023-01-15T20:20:47.593Z,99717.88
2023-01-15T20:23:16.247Z,99699.56
2023-01-15T20:25:48.942Z,99712.44
2023-01-15T20:28:17.872Z,99703.75
2023-01-15T20:30:46.461Z,99708.63
2023-01-15T20:33:14.628Z,99681.59
2023-01-15T20:35:43.035Z,99688.84
2023-01-15T20:38:13.128Z,99702.34
2023-01-15T20:40:41.677Z,99696.66
2023-01-15T20:43:29.046Z,99695.81
2023-01-15T20:46:08.676Z,99683.50
2023-01-15T20:48:55.042Z,99695.59
2023-01-15T20:51:23.555Z,99683.84
2023-01-15T20:53:53.437Z,99687.19
2023-01-15T20:56:21.906Z,99696.28
2023-01-15T20:58:51.590Z,99690.88
2023-01-15T21:01:20.415Z,99681.28
2023-01-15T21:03:48.985Z,99675.72
2023-01-15T21:06:17.227Z,99682.84
2023-01-15T21:08:46.128Z,99672.84
2023-01-15T21:11:15.978Z,99673.66
2023-01-15T21:13:47.171Z,99683.47
2023-01-15T21:16:16.586Z,99679.69
2023-01-15T21:18:46.433Z,99667.41
2023-01-15T21:21:17.247Z,99666.03
2023-01-15T21:23:46.871Z,99677.72
2023-01-15T21:26:17.641Z,99682.59
2023-01-15T21:28:46.149Z,99659.28
2023-01-15T21:31:15.570Z,99667.53
2023-01-15T21:33:44.096Z,99665.38
2023-01-15T21:36:13.749Z,99673.28
2023-01-15T21:38:42.691Z,99647.97
2023-01-15T21:41:13.410Z,99670.00
2023-01-15T21:44:16.154Z,99672.81
2023-01-15T21:46:44.773Z,99663.66
2023-01-15T21:49:12.903Z,99665.28
2023-01-15T21:51:41.330Z,99676.94
2023-01-15T21:54:09.599Z,99655.31
2023-01-15T21:56:39.673Z,99664.41
2023-01-15T21:59:11.808Z,99665.09
2023-01-15T22:01:40.467Z,99640.53
2023-01-15T22:04:09.147Z,99658.31
2023-01-15T22:06:38.105Z,99658.84
2023-01-15T22:09:06.704Z,99656.41
2023-01-15T22:11:44.855Z,99654.13
2023-01-15T22:14:16.529Z,99653.41
2023-01-15T22:16:46.430Z,99658.84
2023-01-15T22:19:19.934Z,99657.69
2023-01-15T22:21:49.955Z,99644.59
2023-01-15T22:24:19.813Z,99646.25
2023-01-15T22:26:53.997Z,99645.03
2023-01-15T22:29:26.144Z,99633.56
2023-01-15T22:31:54.936Z,99628.69
2023-01-15T22:34:24.810Z,99639.53
2023-01-15T22:36:54.440Z,99636.34
2023-01-15T22:39:24.187Z,99639.59
2023-01-15T22:42:10.310Z,99636.59
2023-01-15T22:44:40.648Z,99643.09
2023-01-15T22:47:09.166Z,99631.75
2023-01-15T22:49:37.874Z,99639.66
2023-01-15T22:52:06.590Z,99615.97
2023-01-15T22:54:38.235Z,99629.97
2023-01-15T22:57:06.943Z,99629.22
2023-01-15T22:59:35.239Z,99633.66
2023-01-15T23:02:05.117Z,99632.06
2023-01-15T23:04:34.125Z,99620.03
2023-01-15T23:07:03.065Z,99622.06
2023-01-15T23:09:31.497Z,99625.94
2023-01-15T23:11:59.680Z,99615.06
2023-01-15T23:14:28.177Z,99611.94
2023-01-15T23:16:56.363Z,99605.63
2023-01-15T23:19:28.319Z,99600.38
2023-01-15T23:21:57.056Z,99609.41
2023-01-15T23:24:25.808Z,99613.38
2023-01-15T23:26:54.231Z,99608.97
2023-01-15T23:29:22.443Z,99597.22
2023-01-15T23:31:50.866Z,99602.97
2023-01-15T23:34:19.276Z,99593.84
2023-01-15T23:36:49.708Z,99584.56
2023-01-15T23:39:18.152Z,99591.81
2023-01-15T23:42:04.361Z,99580.72
2023-01-15T23:44:50.326Z,99580.28
2023-01-15T23:47:18.839Z,99578.06
2023-01-15T23:49:47.298Z,99578.16
2023-01-15T23:52:16.900Z,99575.75
2023-01-15T23:54:45.343Z,99573.00
2023-01-15T23:57:13.766Z,99566.13
2023-01-15T23:59:42.191Z,99571.31
